Los Angeles, California
Traffic Map
Current Weather Conditions
Los Angeles, California
Scattered Clouds
Scattered Clouds
68°
Feels Like: 68°
Wind Chill: 68° Ceiling: Unl
Heat Index: 68° Visibility: 10mi
Dew Point: 64° Wind: 0mph
Humidity: 87% Direction: ° ()
Pressure: 29.96in Gusts: 0mph
Raw Report DataKCQT 010547Z AUTO 00000KT 10SM SCT008 20/18 A2996 RMK AO2 SLP142 T02000178 10261 20200 50007
Traffic Incident Summary
Active as of:
Severity:
Category:
InformationThere was an issue retrieving the traffic information for this location. Please try a different location or try again shortly.
Advertisements
Track Severe Weather on mobile